Time;durP1;ratioP1;P1;durP2;ratioP2;P2;SDS_P1;SDS_P2;PMS_P1;PMS_P2;Temp;Humidity;BMP_temperature;BMP_pressure;BME280_temperature;BME280_humidity;BME280_pressure;Samples;Min_cycle;Max_cycle;Signal;HPM_P1;HPM_P2
2022/03/09 00:00:57;;;;;;;8.53;7.30;;;;;;;-1.82;85.00;100858.72;4992791;28;20211;-57
2022/03/09 00:03:23;;;;;;;8.37;7.13;;;;;;;-1.80;85.27;100862.16;4970370;28;20185;-57
2022/03/09 00:05:49;;;;;;;8.57;7.23;;;;;;;-1.80;85.23;100853.69;4989307;28;20197;-62
2022/03/09 00:08:14;;;;;;;9.73;8.30;;;;;;;-1.81;85.37;100855.34;4985594;28;20290;-62
2022/03/09 00:10:39;;;;;;;9.90;8.00;;;;;;;-1.84;85.63;100861.16;4988225;28;20229;-58
2022/03/09 00:13:05;;;;;;;8.70;7.63;;;;;;;-1.87;85.53;100860.97;4992483;28;20659;-60
2022/03/09 00:15:30;;;;;;;8.23;6.97;;;;;;;-1.88;85.76;100861.78;4986746;28;20212;-55
2022/03/09 00:17:55;;;;;;;8.87;7.90;;;;;;;-1.90;86.15;100858.31;4988288;28;20192;-58
2022/03/09 00:20:21;;;;;;;10.00;7.73;;;;;;;-1.91;86.10;100869.25;4976157;28;20217;-60
2022/03/09 00:22:46;;;;;;;11.07;8.73;;;;;;;-1.89;86.65;100870.19;4986699;28;20270;-60
2022/03/09 00:25:12;;;;;;;10.27;8.27;;;;;;;-1.91;86.98;100875.97;5005300;28;20189;-57
2022/03/09 00:27:37;;;;;;;10.83;7.93;;;;;;;-1.95;87.08;100876.59;4988809;28;20199;-58
2022/03/09 00:30:04;;;;;;;9.23;7.13;;;;;;;-1.98;87.15;100876.47;4983338;28;20201;-59
2022/03/09 00:32:30;;;;;;;10.43;8.37;;;;;;;-2.01;87.06;100870.44;4989845;28;20205;-58
2022/03/09 00:34:55;;;;;;;9.63;7.57;;;;;;;-2.04;87.32;100874.50;4988528;28;20191;-57
2022/03/09 00:37:21;;;;;;;11.30;7.67;;;;;;;-2.05;87.27;100880.34;4973199;28;20196;-59
2022/03/09 00:39:46;;;;;;;11.47;8.53;;;;;;;-2.10;87.22;100876.69;4985634;28;20552;-57
2022/03/09 00:42:12;;;;;;;11.07;7.73;;;;;;;-2.17;87.82;100878.91;4987469;28;20355;-59
2022/03/09 00:44:37;;;;;;;9.63;8.13;;;;;;;-2.19;87.96;100885.56;4989249;28;20281;-58
2022/03/09 00:47:03;;;;;;;9.73;7.57;;;;;;;-2.20;88.14;100888.03;4992756;28;20182;-58
2022/03/09 00:49:29;;;;;;;9.53;7.27;;;;;;;-2.21;88.11;100889.69;4988409;28;20701;-59
2022/03/09 00:51:54;;;;;;;9.10;7.80;;;;;;;-2.22;88.47;100889.59;4985353;28;20188;-62
2022/03/09 00:54:19;;;;;;;10.57;8.50;;;;;;;-2.21;89.23;100891.34;4973127;28;20638;-59
2022/03/09 00:56:48;;;;;;;8.60;7.70;;;;;;;-2.23;89.16;100890.41;4985031;28;20193;-57
2022/03/09 00:59:13;;;;;;;8.17;7.30;;;;;;;-2.24;89.56;100893.72;4988823;28;20550;-58
2022/03/09 01:01:38;;;;;;;9.27;7.37;;;;;;;-2.25;89.86;100892.84;4986725;28;20193;-58
2022/03/09 01:06:39;;;;;;;9.33;8.03;;;;;;;-2.24;90.97;100903.84;5646301;23;20588;-57
2022/03/09 01:09:04;;;;;;;10.17;8.10;;;;;;;-2.24;91.54;100903.84;4992452;28;20193;-57
2022/03/09 01:11:30;;;;;;;9.20;8.10;;;;;;;-2.28;91.67;100891.84;4989955;28;20556;-55
2022/03/09 01:13:55;;;;;;;9.50;7.70;;;;;;;-2.31;92.08;100895.06;4987537;28;20213;-55
2022/03/09 01:16:20;;;;;;;10.43;7.93;;;;;;;-2.32;92.26;100894.19;4988003;28;20224;-56
2022/03/09 01:18:46;;;;;;;9.87;8.07;;;;;;;-2.33;92.38;100894.09;4989260;28;20199;-55
2022/03/09 01:21:11;;;;;;;9.00;7.80;;;;;;;-2.34;92.40;100889.81;4992505;28;20188;-55
2022/03/09 01:23:37;;;;;;;11.10;8.00;;;;;;;-2.37;92.56;100889.69;4990216;28;20191;-54
2022/03/09 01:26:02;;;;;;;9.10;7.60;;;;;;;-2.40;92.52;100885.28;4990083;28;20260;-56
2022/03/09 01:28:28;;;;;;;10.70;8.83;;;;;;;-2.42;92.53;100893.63;4987038;28;20744;-56
2022/03/09 01:30:53;;;;;;;11.73;8.87;;;;;;;-2.47;92.55;100891.69;4990536;28;20185;-56
2022/03/09 01:33:18;;;;;;;11.17;9.00;;;;;;;-2.54;92.50;100889.66;4989433;28;20404;-55
2022/03/09 01:35:44;;;;;;;9.33;7.93;;;;;;;-2.55;92.88;100885.38;4987605;28;20283;-59
2022/03/09 01:38:09;;;;;;;10.57;8.40;;;;;;;-2.58;93.06;100889.41;4988128;28;20181;-54
2022/03/09 01:40:34;;;;;;;10.00;8.27;;;;;;;-2.61;93.20;100885.03;4993429;28;20251;-54
2022/03/09 01:43:00;;;;;;;9.90;8.20;;;;;;;-2.64;92.93;100883.19;4990240;28;20580;-55
2022/03/09 01:45:25;;;;;;;9.33;8.33;;;;;;;-2.73;92.59;100885.25;4985725;28;20193;-54
2022/03/09 01:47:51;;;;;;;11.33;9.20;;;;;;;-2.77;91.95;100888.41;4986471;28;20205;-55
2022/03/09 01:50:16;;;;;;;11.67;8.73;;;;;;;-2.83;91.69;100881.34;5005848;28;20189;-55
2022/03/09 01:52:42;;;;;;;10.30;8.90;;;;;;;-2.85;91.99;100882.03;4992724;28;20250;-57
2022/03/09 01:55:09;;;;;;;9.67;8.10;;;;;;;-2.91;92.22;100885.97;4988541;28;20280;-56
2022/03/09 01:57:35;;;;;;;13.47;9.37;;;;;;;-2.94;92.36;100883.28;4988639;28;20629;-55
2022/03/09 02:00:01;;;;;;;10.43;9.07;;;;;;;-2.95;92.18;100888.28;4987150;28;20204;-55
2022/03/09 02:02:26;;;;;;;11.13;8.73;;;;;;;-2.99;92.29;100879.59;4989715;28;20557;-55
2022/03/09 02:04:57;;;;;;;10.90;8.97;;;;;;;-3.01;92.40;100877.78;4986713;28;20217;-55
2022/03/09 02:09:41;;;;;;;10.03;8.67;;;;;;;-3.06;92.31;100875.00;4987043;28;20227;-55
2022/03/09 02:10:09;;;;;;;11.50;8.87;;;;;;;-3.09;92.29;100880.75;4990335;28;20200;-55
2022/03/09 02:12:34;;;;;;;9.27;8.23;;;;;;;-3.09;92.14;100878.22;4987534;28;20251;-55
2022/03/09 02:15:01;;;;;;;9.67;7.97;;;;;;;-3.10;92.22;100879.00;4986973;28;20596;-56
2022/03/09 02:17:27;;;;;;;9.63;8.20;;;;;;;-3.10;92.40;100883.19;4982634;28;20219;-55
2022/03/09 02:19:54;;;;;;;11.30;8.30;;;;;;;-3.10;92.49;100890.81;4985338;28;20219;-56
2022/03/09 02:22:20;;;;;;;10.93;8.70;;;;;;;-3.10;92.91;100886.59;4994330;28;20196;-55
2022/03/09 02:24:47;;;;;;;10.00;8.60;;;;;;;-3.09;92.91;100887.47;4987106;28;20612;-55
2022/03/09 02:27:12;;;;;;;10.13;8.43;;;;;;;-3.12;92.95;100883.13;4984238;28;20518;-55
2022/03/09 02:29:38;;;;;;;9.03;7.70;;;;;;;-3.11;93.30;100886.53;4980984;28;20199;-55
2022/03/09 02:32:04;;;;;;;10.33;8.07;;;;;;;-3.13;93.05;100877.97;4986845;28;20209;-57
2022/03/09 02:34:32;;;;;;;9.13;8.07;;;;;;;-3.15;93.28;100875.34;4988123;28;20258;-56
2022/03/09 02:36:58;;;;;;;12.30;9.03;;;;;;;-3.15;93.59;100882.94;4986288;28;20215;-57
2022/03/09 02:39:23;;;;;;;9.67;8.17;;;;;;;-3.13;94.02;100883.03;4990030;28;20192;-55
2022/03/09 02:41:49;;;;;;;10.20;8.30;;;;;;;-3.13;94.52;100885.56;4990087;28;20184;-55
2022/03/09 02:44:14;;;;;;;10.17;8.67;;;;;;;-3.13;94.80;100883.91;4991981;28;20189;-56
2022/03/09 02:46:40;;;;;;;11.03;8.50;;;;;;;-3.14;94.97;100886.34;4992783;28;20623;-55
2022/03/09 02:49:05;;;;;;;10.30;8.73;;;;;;;-3.17;94.94;100886.16;4988775;28;20548;-56
2022/03/09 02:51:31;;;;;;;9.93;7.97;;;;;;;-3.19;95.29;100885.22;4990900;28;20221;-56
2022/03/09 02:53:57;;;;;;;9.20;7.73;;;;;;;-3.21;95.47;100887.66;4998739;28;20219;-55
2022/03/09 02:56:22;;;;;;;11.10;8.47;;;;;;;-3.23;95.61;100889.22;4989936;28;20209;-56
2022/03/09 02:58:48;;;;;;;10.73;9.20;;;;;;;-3.22;95.94;100889.34;4990197;28;20185;-56
2022/03/09 03:01:14;;;;;;;9.27;8.20;;;;;;;-3.24;95.88;100888.38;4990224;28;20214;-55
2022/03/09 03:03:41;;;;;;;10.60;8.47;;;;;;;-3.25;95.82;100891.69;5000543;28;20186;-55
2022/03/09 03:06:09;;;;;;;11.53;8.60;;;;;;;-3.28;95.94;100896.56;4989871;28;20611;-55
2022/03/09 03:08:35;;;;;;;11.00;9.07;;;;;;;-3.30;95.97;100889.69;4984034;28;20194;-56
2022/03/09 03:11:00;;;;;;;11.37;8.63;;;;;;;-3.31;95.83;100888.78;4987291;28;20503;-55
2022/03/09 03:13:27;;;;;;;10.00;8.40;;;;;;;-3.34;95.84;100891.19;4988611;28;20596;-54
2022/03/09 03:15:53;;;;;;;10.57;8.87;;;;;;;-3.37;95.78;100898.59;4984439;28;20193;-55
2022/03/09 03:18:18;;;;;;;10.57;8.40;;;;;;;-3.40;95.97;100901.78;4985779;28;20594;-55
2022/03/09 03:20:43;;;;;;;11.97;8.67;;;;;;;-3.41;96.22;100909.31;4988512;28;20225;-57
2022/03/09 03:23:09;;;;;;;10.93;8.93;;;;;;;-3.44;96.28;100916.72;4984364;28;20204;-55
2022/03/09 03:25:34;;;;;;;11.63;8.57;;;;;;;-3.48;96.12;100922.41;4989509;28;20286;-56
2022/03/09 03:28:03;;;;;;;11.37;9.03;;;;;;;-3.56;96.30;100925.34;4991919;28;20696;-55
2022/03/09 03:30:28;;;;;;;10.87;9.10;;;;;;;-3.62;96.13;100924.97;4989235;28;20185;-55
2022/03/09 03:32:53;;;;;;;10.87;8.83;;;;;;;-3.64;96.14;100924.03;4990639;28;20254;-54
2022/03/09 03:35:19;;;;;;;11.50;8.93;;;;;;;-3.66;96.65;100923.06;5005279;28;20197;-55
2022/03/09 03:37:44;;;;;;;10.07;8.70;;;;;;;-3.68;96.65;100917.03;4990948;28;20211;-54
2022/03/09 03:40:10;;;;;;;9.40;8.47;;;;;;;-3.70;96.47;100924.53;4989810;28;20189;-55
2022/03/09 03:42:35;;;;;;;10.83;9.33;;;;;;;-3.72;96.72;100928.66;4991884;28;20763;-55
2022/03/09 03:45:00;;;;;;;12.47;8.77;;;;;;;-3.74;96.45;100916.66;4990897;28;20193;-55
2022/03/09 03:47:26;;;;;;;10.70;8.33;;;;;;;-3.78;96.52;100929.94;4990540;28;20212;-56
2022/03/09 03:49:51;;;;;;;11.67;8.57;;;;;;;-3.80;96.66;100931.50;4991025;28;20193;-57
2022/03/09 03:52:17;;;;;;;12.77;9.07;;;;;;;-3.83;96.86;100934.69;4990256;28;20192;-56
2022/03/09 03:54:42;;;;;;;11.33;9.40;;;;;;;-3.84;96.96;100925.38;4992217;28;20218;-56
2022/03/09 03:57:08;;;;;;;10.83;9.07;;;;;;;-3.84;96.89;100926.25;4992784;28;20242;-56
2022/03/09 03:59:33;;;;;;;10.20;8.63;;;;;;;-3.86;96.96;100917.69;4983984;28;20682;-56
2022/03/09 04:01:59;;;;;;;10.90;8.03;;;;;;;-3.89;96.99;100926.75;4988150;28;20200;-54
2022/03/09 04:04:25;;;;;;;11.63;9.03;;;;;;;-3.92;96.94;100927.44;4991142;28;20228;-54
2022/03/09 04:06:50;;;;;;;11.13;9.30;;;;;;;-3.93;97.03;100933.28;4992193;28;20229;-55
2022/03/09 04:09:16;;;;;;;10.27;8.13;;;;;;;-3.95;97.27;100929.81;4984869;28;20193;-55
2022/03/09 04:11:41;;;;;;;10.87;9.60;;;;;;;-3.94;97.44;100934.09;4992463;28;20208;-54
2022/03/09 04:14:07;;;;;;;11.13;10.03;;;;;;;-3.95;97.88;100928.91;4987567;28;20212;-56
2022/03/09 04:16:32;;;;;;;12.53;9.87;;;;;;;-3.98;97.94;100935.53;4988639;28;20241;-55
2022/03/09 04:18:57;;;;;;;11.37;9.30;;;;;;;-4.03;98.15;100941.09;4991734;28;20276;-55
2022/03/09 04:21:23;;;;;;;11.27;9.17;;;;;;;-4.08;98.05;100938.28;4992870;28;20216;-56
2022/03/09 04:23:48;;;;;;;10.70;9.00;;;;;;;-4.13;98.18;100924.50;4990786;28;20286;-55
2022/03/09 04:26:13;;;;;;;11.07;8.77;;;;;;;-4.17;98.14;100931.03;4990061;28;20249;-56
2022/03/09 04:28:39;;;;;;;11.83;9.53;;;;;;;-4.18;98.34;100930.94;4989719;28;20188;-55
2022/03/09 04:31:04;;;;;;;11.77;9.40;;;;;;;-4.20;98.44;100940.06;4996422;28;20236;-55
2022/03/09 04:33:29;;;;;;;12.63;9.67;;;;;;;-4.22;98.53;100932.38;4988489;28;20283;-55
2022/03/09 04:35:55;;;;;;;11.57;9.83;;;;;;;-4.22;98.80;100934.91;4987252;28;20213;-56
2022/03/09 04:38:20;;;;;;;12.33;9.97;;;;;;;-4.21;98.76;100934.13;4988946;28;20225;-56
2022/03/09 04:40:46;;;;;;;11.73;9.57;;;;;;;-4.19;98.61;100924.13;4985368;28;20216;-56
2022/03/09 04:43:11;;;;;;;13.20;9.17;;;;;;;-4.19;99.10;100926.66;4990069;28;20189;-56
2022/03/09 04:45:36;;;;;;;11.73;9.67;;;;;;;-4.18;98.89;100930.94;4986866;28;20671;-55
2022/03/09 04:48:02;;;;;;;12.00;9.20;;;;;;;-4.18;99.08;100926.75;4991237;28;20193;-55
2022/03/09 04:50:28;;;;;;;12.60;9.57;;;;;;;-4.19;99.02;100917.41;4988613;28;20189;-56
2022/03/09 04:52:53;;;;;;;10.60;8.87;;;;;;;-4.19;98.98;100924.13;4985852;28;20209;-55
2022/03/09 04:55:18;;;;;;;11.00;9.47;;;;;;;-4.19;99.18;100919.94;4990469;28;20204;-55
2022/03/09 04:57:44;;;;;;;11.40;9.47;;;;;;;-4.17;99.22;100928.50;4988794;28;20217;-55
2022/03/09 05:00:09;;;;;;;11.63;9.50;;;;;;;-4.17;99.05;100927.63;5005038;28;20193;-56
2022/03/09 05:02:35;;;;;;;10.40;8.53;;;;;;;-4.18;98.88;100925.88;4987497;28;20548;-55
2022/03/09 05:05:01;;;;;;;11.47;8.93;;;;;;;-4.21;98.71;100934.13;4987240;28;20216;-55
2022/03/09 05:07:26;;;;;;;12.53;8.53;;;;;;;-4.23;98.63;100934.81;4991658;28;20220;-56
2022/03/09 05:09:52;;;;;;;11.90;9.40;;;;;;;-4.25;98.41;100943.97;4987672;28;20641;-56
2022/03/09 05:12:17;;;;;;;10.97;9.43;;;;;;;-4.28;98.40;100945.53;4993679;28;20189;-55
2022/03/09 05:14:43;;;;;;;12.40;9.80;;;;;;;-4.29;98.60;100951.34;4993609;28;20203;-56
2022/03/09 05:17:08;;;;;;;11.63;9.47;;;;;;;-4.28;98.59;100950.56;4991728;28;20219;-55
2022/03/09 05:19:33;;;;;;;12.23;9.53;;;;;;;-4.31;98.32;100952.91;4990816;28;20280;-56
2022/03/09 05:21:59;;;;;;;10.27;8.63;;;;;;;-4.33;98.21;100951.06;4990459;28;20191;-55
2022/03/09 05:24:24;;;;;;;10.60;8.70;;;;;;;-4.35;98.40;100961.09;4989425;28;20192;-55
2022/03/09 05:26:49;;;;;;;9.73;8.73;;;;;;;-4.36;98.35;100960.97;4988033;28;20219;-55
2022/03/09 05:29:15;;;;;;;10.80;8.63;;;;;;;-4.39;98.38;100960.81;5004732;28;20284;-55
2022/03/09 05:31:41;;;;;;;10.20;9.10;;;;;;;-4.42;98.30;100966.53;4995836;28;20188;-56
2022/03/09 05:34:07;;;;;;;9.90;8.60;;;;;;;-4.41;98.25;100964.91;4998036;28;20212;-54
2022/03/09 05:36:32;;;;;;;12.73;8.97;;;;;;;-4.43;98.16;100962.25;4999847;28;20223;-54
2022/03/09 05:38:58;;;;;;;10.80;8.60;;;;;;;-4.43;98.25;100959.72;4999034;28;20588;-57
2022/03/09 05:41:23;;;;;;;11.47;9.17;;;;;;;-4.44;98.24;100970.63;4987963;28;20288;-56
2022/03/09 05:43:52;;;;;;;12.67;9.30;;;;;;;-4.47;98.29;100966.25;4982960;28;20645;-55
2022/03/09 05:46:17;;;;;;;12.97;10.13;;;;;;;-4.48;98.08;100966.16;4983698;28;20256;-56
2022/03/09 05:48:42;;;;;;;11.23;9.20;;;;;;;-4.50;98.17;100975.31;4988879;28;20710;-55
2022/03/09 05:51:08;;;;;;;11.07;8.97;;;;;;;-4.52;98.33;100977.72;4993960;28;20192;-55
2022/03/09 05:53:34;;;;;;;11.77;10.13;;;;;;;-4.52;98.40;100981.91;4989007;28;20213;-55
2022/03/09 05:56:02;;;;;;;13.40;10.07;;;;;;;-4.53;98.47;100981.00;4991319;28;20217;-54
2022/03/09 05:58:27;;;;;;;12.10;9.77;;;;;;;-4.52;98.51;100971.78;4986888;28;20186;-54
2022/03/09 06:00:53;;;;;;;13.00;9.97;;;;;;;-4.51;98.82;100981.13;4988691;28;20243;-54
2022/03/09 06:03:18;;;;;;;13.33;10.83;;;;;;;-4.49;99.05;100977.06;4996195;28;20197;-54
2022/03/09 06:05:43;;;;;;;14.83;11.20;;;;;;;-4.46;99.20;100987.31;4990038;28;20552;-54
2022/03/09 06:08:09;;;;;;;13.47;11.17;;;;;;;-4.42;99.32;100996.00;4984225;28;20668;-55
2022/03/09 06:10:37;;;;;;;15.23;10.47;;;;;;;-4.42;99.39;100996.84;4990524;28;20546;-55
2022/03/09 06:13:02;;;;;;;11.50;10.30;;;;;;;-4.37;99.43;100992.97;4989515;28;20681;-54
2022/03/09 06:15:27;;;;;;;12.20;9.90;;;;;;;-4.35;99.43;100993.94;4989548;28;20288;-54
2022/03/09 06:17:53;;;;;;;15.30;10.23;;;;;;;-4.30;99.41;100997.63;4989025;28;20231;-54
2022/03/09 06:20:20;;;;;;;15.33;10.50;;;;;;;-4.20;99.43;100998.22;4989949;28;20268;-54
2022/03/09 06:22:46;;;;;;;15.53;10.13;;;;;;;-4.06;99.36;101001.56;4986265;28;20193;-54
2022/03/09 06:25:15;;;;;;;15.23;11.00;;;;;;;-3.82;98.93;101009.78;4991094;28;20803;-55
2022/03/09 06:27:42;;;;;;;13.33;10.63;;;;;;;-3.57;97.81;101014.69;4988155;28;20244;-57
2022/03/09 06:30:09;;;;;;;12.47;10.97;;;;;;;-3.41;97.13;101015.59;4988012;28;20255;-55
2022/03/09 06:32:34;;;;;;;14.47;10.77;;;;;;;-3.34;97.10;101015.19;4988523;28;20205;-55
2022/03/09 06:35:03;;;;;;;17.87;11.50;;;;;;;-3.17;96.85;101018.72;4987191;28;20676;-54
2022/03/09 06:37:28;;;;;;;14.93;11.07;;;;;;;-2.99;97.02;101023.09;4983247;28;20255;-54
2022/03/09 06:39:56;;;;;;;12.53;9.83;;;;;;;-2.85;96.44;101023.88;4984566;28;20204;-55
2022/03/09 06:42:22;;;;;;;12.67;9.87;;;;;;;-2.70;96.04;101029.81;4989434;28;20201;-56
2022/03/09 06:44:48;;;;;;;13.90;10.63;;;;;;;-2.53;95.94;101029.91;4983981;28;20196;-55
2022/03/09 06:47:13;;;;;;;14.90;10.90;;;;;;;-2.40;96.10;101042.47;4985625;28;20222;-54
2022/03/09 06:49:38;;;;;;;21.07;12.07;;;;;;;-2.29;96.74;101040.53;4988174;28;20713;-54
2022/03/09 06:52:04;;;;;;;16.60;11.80;;;;;;;-2.11;97.10;101042.34;4990730;28;20621;-55
2022/03/09 06:54:30;;;;;;;15.77;11.13;;;;;;;-1.97;97.05;101043.09;4995424;28;20373;-54
2022/03/09 06:56:55;;;;;;;21.80;11.93;;;;;;;-1.84;96.74;101053.97;4985143;28;20236;-55
2022/03/09 06:59:21;;;;;;;20.67;13.00;;;;;;;-1.66;98.18;101058.28;4984100;28;20190;-56
2022/03/09 07:01:46;;;;;;;22.03;12.47;;;;;;;-1.55;97.92;101056.34;4987375;28;20196;-55
2022/03/09 07:04:11;;;;;;;15.00;10.97;;;;;;;-1.50;97.81;101054.88;4990081;28;20224;-55
2022/03/09 07:06:37;;;;;;;14.03;10.17;;;;;;;-1.40;97.88;101057.13;4984588;28;20224;-56
2022/03/09 07:09:02;;;;;;;17.73;9.97;;;;;;;-1.31;97.61;101061.81;4988937;28;20261;-55
2022/03/09 07:11:28;;;;;;;14.83;9.77;;;;;;;-1.26;97.61;101056.97;4990989;28;20193;-55
2022/03/09 07:13:53;;;;;;;12.03;9.20;;;;;;;-1.24;97.34;101058.78;4988481;28;20216;-55
2022/03/09 07:16:18;;;;;;;14.30;9.70;;;;;;;-1.25;97.71;101057.03;4998541;28;20220;-54
2022/03/09 07:18:44;;;;;;;11.93;9.83;;;;;;;-1.25;97.57;101054.50;4998185;28;20242;-54
2022/03/09 07:21:09;;;;;;;12.27;9.43;;;;;;;-1.23;97.91;101057.13;4988163;28;20190;-55
2022/03/09 07:23:34;;;;;;;14.10;10.30;;;;;;;-1.18;97.84;101060.75;4984963;28;20463;-55
2022/03/09 07:26:00;;;;;;;13.70;10.07;;;;;;;-1.13;97.39;101059.34;4984303;28;20209;-54
2022/03/09 07:28:25;;;;;;;13.30;10.07;;;;;;;-1.06;96.93;101064.75;4985302;28;20201;-54
2022/03/09 07:30:51;;;;;;;11.97;10.17;;;;;;;-1.01;96.61;101064.19;4983873;28;20185;-56
2022/03/09 07:33:17;;;;;;;11.63;9.33;;;;;;;-0.96;95.95;101064.41;4984651;28;20212;-55
2022/03/09 07:35:45;;;;;;;11.53;9.37;;;;;;;-0.92;95.24;101072.25;4990427;28;20197;-56
2022/03/09 07:38:10;;;;;;;11.07;9.33;;;;;;;-0.86;94.73;101069.16;4990340;28;20193;-55
2022/03/09 07:40:36;;;;;;;9.57;8.33;;;;;;;-0.79;94.26;101071.22;4988047;28;20208;-55
2022/03/09 07:43:01;;;;;;;9.97;8.67;;;;;;;-0.68;93.50;101073.41;4988190;28;20193;-56
2022/03/09 07:45:27;;;;;;;11.87;9.20;;;;;;;-0.57;92.97;101074.81;4986887;28;20177;-56
2022/03/09 07:47:52;;;;;;;11.10;9.30;;;;;;;-0.49;92.05;101075.19;4987141;28;20220;-55
2022/03/09 07:50:18;;;;;;;11.13;9.20;;;;;;;-0.42;91.47;101078.88;4989965;28;20185;-55
2022/03/09 07:52:43;;;;;;;10.80;9.47;;;;;;;-0.36;90.38;101085.13;4987197;28;20243;-55
2022/03/09 07:55:09;;;;;;;11.87;9.33;;;;;;;-0.30;89.70;101074.38;4991458;28;20563;-55
2022/03/09 07:57:35;;;;;;;10.53;8.63;;;;;;;-0.24;89.46;101068.75;4987343;28;20228;-55
2022/03/09 08:00:00;;;;;;;11.33;8.60;;;;;;;-0.17;88.82;101078.41;4992761;28;20197;-56
2022/03/09 08:02:26;;;;;;;10.47;8.73;;;;;;;-0.09;88.69;101079.66;4993715;28;20659;-56
2022/03/09 08:04:51;;;;;;;10.87;8.23;;;;;;;-0.01;87.60;101069.84;4987865;28;20711;-56
2022/03/09 08:07:17;;;;;;;11.10;8.80;;;;;;;0.12;87.09;101078.88;4988541;28;20269;-55
2022/03/09 08:09:42;;;;;;;12.03;9.13;;;;;;;0.24;86.04;101083.69;4991038;28;20181;-56
2022/03/09 08:12:11;;;;;;;12.53;9.90;;;;;;;0.35;85.47;101094.38;4993983;28;20669;-56
2022/03/09 08:14:37;;;;;;;11.93;9.13;;;;;;;0.46;85.04;101088.06;4992302;28;20228;-54
2022/03/09 08:17:02;;;;;;;11.30;9.13;;;;;;;0.58;85.04;101086.06;4992971;28;20568;-56
2022/03/09 08:19:28;;;;;;;10.77;9.17;;;;;;;0.70;84.52;101095.06;4990860;28;20191;-55
2022/03/09 08:21:54;;;;;;;12.67;9.67;;;;;;;0.80;84.00;101097.22;5005329;28;20596;-54
2022/03/09 08:24:19;;;;;;;10.63;9.23;;;;;;;0.89;83.81;101099.31;4998756;28;20194;-54
2022/03/09 08:26:45;;;;;;;12.77;9.90;;;;;;;0.97;83.47;101095.41;4992141;28;20220;-55
2022/03/09 08:29:11;;;;;;;9.60;8.40;;;;;;;1.07;83.25;101101.78;4994687;28;20185;-55
2022/03/09 08:31:36;;;;;;;11.70;10.27;;;;;;;1.17;82.14;101097.94;4995493;28;20193;-55
2022/03/09 08:34:01;;;;;;;12.30;9.77;;;;;;;1.29;81.23;101092.47;4993169;28;20296;-55
2022/03/09 08:36:27;;;;;;;11.60;9.87;;;;;;;1.31;79.83;101090.84;4992812;28;20212;-55
2022/03/09 08:38:54;;;;;;;9.97;8.93;;;;;;;1.39;80.17;101097.16;5000540;28;20196;-55
2022/03/09 08:41:21;;;;;;;14.13;10.23;;;;;;;1.47;80.32;101098.34;4997856;28;20204;-54
2022/03/09 08:43:47;;;;;;;10.60;9.50;;;;;;;1.60;80.08;101093.72;4997483;28;20189;-55
2022/03/09 08:46:12;;;;;;;11.37;9.17;;;;;;;1.72;80.13;101095.91;4997170;28;20196;-54
2022/03/09 08:48:39;;;;;;;10.80;9.20;;;;;;;1.86;80.24;101088.81;4991474;28;20606;-54
2022/03/09 08:51:06;;;;;;;13.50;9.80;;;;;;;2.00;80.24;101104.66;4993013;28;20188;-55
2022/03/09 08:53:32;;;;;;;10.40;8.60;;;;;;;2.13;80.08;101105.22;4993524;28;20213;-54
2022/03/09 08:55:57;;;;;;;9.27;8.30;;;;;;;2.26;80.45;101104.03;4994380;28;20212;-56
2022/03/09 08:58:23;;;;;;;10.80;8.83;;;;;;;2.41;80.58;101098.59;4991775;28;20274;-56
2022/03/09 09:00:48;;;;;;;10.20;8.70;;;;;;;2.54;80.46;101097.38;4989249;28;20196;-53
2022/03/09 09:03:13;;;;;;;9.97;8.77;;;;;;;2.66;80.31;101099.50;4991054;28;20279;-55
2022/03/09 09:05:39;;;;;;;10.53;8.33;;;;;;;2.78;80.29;101100.78;4992488;28;20185;-55
2022/03/09 09:08:05;;;;;;;13.60;9.70;;;;;;;2.93;79.47;101100.44;4988702;28;20248;-55
2022/03/09 09:10:31;;;;;;;11.33;9.50;;;;;;;3.05;79.28;101105.97;5002523;28;20189;-56
2022/03/09 09:12:57;;;;;;;10.23;9.13;;;;;;;3.17;79.12;101103.00;4999865;28;20220;-56
2022/03/09 09:15:24;;;;;;;12.87;9.67;;;;;;;3.26;78.63;101098.16;4991627;28;20272;-55
2022/03/09 09:17:56;;;;;;;11.00;9.50;;;;;;;3.38;78.22;101096.88;4998959;28;20208;-55
2022/03/09 09:20:25;;;;;;;13.27;9.10;;;;;;;3.48;78.15;101101.47;4993225;28;20189;-55
2022/03/09 09:22:51;;;;;;;10.60;9.50;;;;;;;3.57;77.96;101096.63;4984929;28;20637;-56
2022/03/09 09:25:16;;;;;;;11.50;10.30;;;;;;;3.68;77.78;101093.59;4994878;28;20193;-56
2022/03/09 09:27:41;;;;;;;11.47;10.20;;;;;;;3.80;77.64;101099.09;4990777;28;20212;-55
2022/03/09 09:30:08;;;;;;;14.17;11.13;;;;;;;3.91;76.51;101099.44;4991234;28;20193;-55
2022/03/09 09:32:33;;;;;;;12.50;11.03;;;;;;;3.95;76.09;101091.88;4990209;28;20200;-55
2022/03/09 09:34:59;;;;;;;13.17;10.40;;;;;;;4.02;76.25;101081.81;4994764;28;20189;-56
2022/03/09 09:37:24;;;;;;;15.87;11.70;;;;;;;4.07;76.15;101088.84;5008120;28;20641;-55
2022/03/09 09:39:49;;;;;;;12.63;11.40;;;;;;;4.14;75.60;101089.00;4994254;28;20198;-55
2022/03/09 09:42:15;;;;;;;12.60;10.67;;;;;;;4.21;75.40;101086.69;4988606;28;20275;-56
2022/03/09 09:44:42;;;;;;;13.83;11.00;;;;;;;4.30;75.39;101085.25;4995950;28;20187;-54
2022/03/09 09:47:13;;;;;;;17.20;13.03;;;;;;;4.33;75.00;101080.19;4988032;28;20411;-55
2022/03/09 09:49:39;;;;;;;12.03;10.33;;;;;;;4.42;74.95;101072.78;4991846;28;20215;-56
2022/03/09 09:52:05;;;;;;;13.47;10.23;;;;;;;4.51;74.53;101070.47;4988279;28;20633;-56
2022/03/09 09:54:31;;;;;;;11.87;10.53;;;;;;;4.64;74.50;101073.38;4994323;28;20260;-56
2022/03/09 09:56:56;;;;;;;12.47;10.07;;;;;;;4.81;74.53;101072.16;4993743;28;20262;-55
2022/03/09 09:59:22;;;;;;;12.63;11.30;;;;;;;4.98;74.35;101064.03;4994119;28;20703;-57
2022/03/09 10:01:47;;;;;;;14.10;11.77;;;;;;;5.11;74.28;101063.53;4985124;28;20205;-54
2022/03/09 10:04:13;;;;;;;15.93;12.00;;;;;;;5.26;74.13;101062.19;4982793;28;20200;-56
2022/03/09 10:06:38;;;;;;;12.80;11.50;;;;;;;5.34;73.51;101065.81;4990745;28;20223;-56
2022/03/09 10:09:08;;;;;;;12.20;11.00;;;;;;;5.44;73.33;101060.09;4991558;28;20189;-55
2022/03/09 10:11:50;;;;;;;12.10;10.90;;;;;;;5.54;72.87;101053.47;4992193;28;20664;-56
2022/03/09 10:14:17;;;;;;;11.97;10.73;;;;;;;5.63;72.64;101058.81;4992178;28;20246;-55
2022/03/09 10:17:04;;;;;;;12.17;10.83;;;;;;;5.72;70.30;101062.44;4983606;28;20213;-56
2022/03/09 10:19:36;;;;;;;12.10;10.87;;;;;;;5.75;69.14;101057.38;4989857;28;20607;-56
2022/03/09 10:22:30;;;;;;;12.70;11.50;;;;;;;5.80;69.08;101056.66;4997403;28;20188;-56
2022/03/09 10:25:15;;;;;;;11.77;10.63;;;;;;;5.90;69.23;101062.00;4990818;28;20658;-55
2022/03/09 10:27:55;;;;;;;12.70;11.20;;;;;;;6.03;68.35;101063.19;4992483;28;20209;-56
2022/03/09 10:30:22;;;;;;;12.37;10.57;;;;;;;6.12;68.21;101072.81;4997435;28;20196;-55
2022/03/09 10:32:59;;;;;;;13.60;11.10;;;;;;;6.16;67.76;101067.75;4995547;28;20711;-55
2022/03/09 10:35:30;;;;;;;11.57;10.47;;;;;;;6.24;67.48;101062.78;4993396;28;20594;-57
2022/03/09 10:38:01;;;;;;;12.60;11.30;;;;;;;6.33;66.70;101056.97;4987826;28;20213;-56
2022/03/09 10:40:28;;;;;;;12.63;11.33;;;;;;;6.39;65.70;101051.94;5014186;28;20673;-56
2022/03/09 10:43:20;;;;;;;13.27;11.03;;;;;;;6.43;65.29;101061.47;5001194;28;20235;-56
2022/03/09 10:46:04;;;;;;;12.33;10.80;;;;;;;6.46;64.77;101060.66;4990734;28;20204;-55
2022/03/09 10:48:49;;;;;;;11.57;10.47;;;;;;;6.51;64.74;101059.03;4992668;28;20194;-56
2022/03/09 10:51:30;;;;;;;10.93;9.83;;;;;;;6.59;64.83;101059.19;4990763;28;20204;-57
2022/03/09 10:53:56;;;;;;;11.70;10.57;;;;;;;6.67;64.91;101062.78;4990617;28;20267;-56
2022/03/09 10:56:22;;;;;;;14.23;10.40;;;;;;;6.79;64.58;101051.84;4997332;28;20212;-56
2022/03/09 10:58:48;;;;;;;10.97;9.87;;;;;;;6.85;64.14;101047.69;4988737;28;20204;-55
2022/03/09 11:01:17;;;;;;;14.37;11.80;;;;;;;6.92;63.48;101045.25;4991125;28;20198;-56
2022/03/09 11:03:43;;;;;;;14.63;11.17;;;;;;;6.95;62.74;101045.31;4987510;28;20238;-56
2022/03/09 11:06:10;;;;;;;12.97;11.57;;;;;;;7.01;62.35;101038.56;4989006;28;20738;-57
2022/03/09 11:08:37;;;;;;;12.03;10.73;;;;;;;7.08;62.10;101041.22;4982244;28;20193;-57
2022/03/09 11:11:04;;;;;;;11.67;10.33;;;;;;;7.12;62.14;101043.03;4991266;28;20186;-57
2022/03/09 11:13:33;;;;;;;11.30;10.07;;;;;;;7.16;62.16;101030.22;5003067;28;20285;-56
2022/03/09 11:15:59;;;;;;;14.27;12.20;;;;;;;7.20;62.02;101027.72;4986024;28;20613;-56
2022/03/09 11:18:28;;;;;;;11.87;10.63;;;;;;;7.30;61.78;101027.00;4990524;28;20190;-57